Jacksonville International Airport Jacksonville US
ICAO: KJAX
IATA: JAX
Category: Large
Scheduled Services: Yes

Elevation: 30 ft
TransAlt. 18000 ft.

Airport Communications:
APP/DEP:118
ATIS:125.85
CLNC DEL:119.5
GND:121.9
ANG MAINT:25.125
ANG SOF:27.39
ANG COMD POST:25.125
TWR:118.3
UNICOM:122.95

KJAX Zoom In..

Runways:

(A) RW 08 length 10000 ft width 150 ft
ILS 110.70 / hdg 77

(B) RW 14 length 7701 ft width 150 ft
ILS 110.50 / hdg 137

(C) RW 26 length 10000 ft width 150 ft
ILS 110.30 / hdg 257

(D) RW 32 length 7701 ft width 150 ft
---- / hdg 317

Location; KJAX
Day. 01 / Time. 16.56 Zulu
* Altimeter: 30.19
* Temperature: 08° c. 46.4°f.
* Wind from: 300° Speed 10 kn with Gusts up to 20 kn.
Dewpoint: -03° c.
Visibility: 10 Statute Miles.
Clouds: Few 3000 ft.

KJAX 011656Z 30010G20KT 10SM FEW030 08/M03 A3019 RMK AO2 SLP222 T00781033 $

Going to: --> -->


Wind From 300°
Speed 10 kn.

 
 
jpsmedia worldairports.se 2020   terms of use